Time;durP1;ratioP1;P1;durP2;ratioP2;P2;SDS_P1;SDS_P2;PMS_P1;PMS_P2;Temp;Humidity;BMP_temperature;BMP_pressure;BME280_temperature;BME280_humidity;BME280_pressure;Samples;Min_cycle;Max_cycle;Signal;HPM_P1;HPM_P2
2023/07/03 14:50:22;;;;;;;;;4.75;3.75;;;;;-148.87;27.47;52445.09;5092315;27;45780;-70
2023/07/03 14:52:48;;;;;;;;;3.25;2.50;;;;;-148.87;25.80;53734.41;5070334;27;45414;-71
2023/07/03 14:55:15;;;;;;;;;5.25;4.25;;;;;-148.87;23.57;53936.63;5067867;28;45749;-72
2023/07/03 14:57:41;;;;;;;;;8.00;6.00;;;;;-148.87;23.16;54014.72;5077500;27;46118;-73
2023/07/03 15:00:08;;;;;;;;;7.75;5.00;;;;;-148.87;23.35;54120.88;5072073;28;45497;-70
2023/07/03 15:02:41;;;;;;;;;4.75;4.75;;;;;-148.87;22.78;54361.19;5073368;27;45535;-68
2023/07/03 15:05:08;;;;;;;;;5.25;5.00;;;;;-148.87;22.05;54122.88;5064071;27;45218;-71
2023/07/03 15:07:36;;;;;;;;;6.75;5.00;;;;;-148.87;21.55;54275.06;5088786;27;46982;-70
2023/07/03 15:10:02;;;;;;;;;4.50;3.75;;;;;-148.87;22.29;54279.06;5073069;28;47321;-69
2023/07/03 15:12:27;;;;;;;;;4.75;4.00;;;;;-148.87;22.25;54501.38;5069671;28;45575;-71
2023/07/03 15:14:53;;;;;;;;;6.00;5.25;;;;;-148.87;21.12;54381.22;5067709;27;45289;-73
2023/07/03 15:17:18;;;;;;;;;3.75;3.75;;;;;-148.87;21.50;54539.41;5072706;28;45346;-72
2023/07/03 15:19:43;;;;;;;;;6.75;5.75;;;;;-148.87;20.81;54499.38;5071826;28;47878;-70
2023/07/03 15:22:11;;;;;;;;;5.50;5.00;;;;;-148.87;19.76;54413.25;5073139;28;45675;-73
2023/07/03 15:24:37;;;;;;;;;4.50;3.75;;;;;-148.87;19.30;54455.31;5060933;27;45423;-72
2023/07/03 15:27:03;;;;;;;;;3.50;3.50;;;;;-148.87;20.58;54509.38;5071748;28;45264;-71
2023/07/03 15:29:29;;;;;;;;;5.00;4.00;;;;;-148.87;20.30;54565.47;5070231;27;46921;-70
2023/07/03 15:31:55;;;;;;;;;6.75;5.00;;;;;-148.87;20.25;54545.44;5072624;28;45499;-70
2023/07/03 15:34:24;;;;;;;;;4.25;3.25;;;;;-148.87;19.52;54467.31;5062296;28;45705;-72
2023/07/03 15:36:53;;;;;;;;;6.75;4.00;;;;;-148.87;18.71;54447.28;5073603;27;45516;-71
2023/07/03 15:39:23;;;;;;;;;7.00;5.50;;;;;-148.87;18.87;54465.31;5073935;28;46534;-70
2023/07/03 15:41:49;;;;;;;;;6.50;5.50;;;;;-148.87;20.00;54495.34;5071111;28;45839;-70
2023/07/03 15:44:15;;;;;;;;;1.75;1.00;;;;;-148.87;19.50;54491.34;5073307;27;45410;-69
2023/07/03 15:46:41;;;;;;;;;5.50;5.00;;;;;-148.87;19.07;54455.31;5070824;28;46208;-69
2023/07/03 15:49:07;;;;;;;;;4.75;2.25;;;;;-148.87;18.99;54477.34;5084758;27;46441;-67
2023/07/03 15:51:33;;;;;;;;;4.50;3.25;;;;;-148.87;20.34;54329.13;5092889;27;45682;-68
2023/07/03 15:53:59;;;;;;;;;3.75;3.75;;;;;-148.87;20.61;54437.28;5095139;27;45414;-68
2023/07/03 15:56:25;;;;;;;;;3.75;3.00;;;;;-148.87;19.96;54477.34;5077037;27;47061;-70
2023/07/03 15:58:52;;;;;;;;;5.25;4.75;;;;;-148.87;19.85;54499.38;5099084;27;45563;-67
2023/07/03 16:01:19;;;;;;;;;7.00;5.25;;;;;-148.87;19.21;54435.28;5081490;27;45376;-67
2023/07/03 16:03:46;;;;;;;;;3.50;3.50;;;;;-148.87;20.20;54515.38;5081866;28;45468;-69
2023/07/03 16:06:17;;;;;;;;;7.25;4.50;;;;;-148.87;19.82;54445.28;5063274;28;46303;-70
2023/07/03 16:08:43;;;;;;;;;5.50;4.25;;;;;-148.87;19.93;54543.44;5074228;28;46518;-68
2023/07/03 16:11:20;;;;;;;;;5.00;3.75;;;;;-148.87;19.42;54491.34;5080940;28;45489;-70
2023/07/03 16:13:46;;;;;;;;;6.00;5.75;;;;;-148.87;19.60;54509.38;5082971;27;45421;-71
2023/07/03 16:16:20;;;;;;;;;5.25;4.25;;;;;-148.87;19.32;54523.41;5071664;28;45288;-70
2023/07/03 16:18:59;;;;;;;;;6.00;5.25;;;;;-148.87;19.94;54453.31;5081402;28;46559;-70
2023/07/03 16:21:27;;;;;;;;;6.00;6.00;;;;;-148.87;20.29;54365.19;5058817;28;45476;-68
2023/07/03 16:23:54;;;;;;;;;7.00;5.75;;;;;-148.87;20.91;54277.06;5087894;27;45320;-70
2023/07/03 16:26:20;;;;;;;;;4.75;4.25;;;;;-148.87;21.35;54241.03;5080707;27;45473;-71
2023/07/03 16:28:46;;;;;;;;;5.75;5.00;;;;;-148.87;21.75;54184.94;5061773;28;46987;-69
2023/07/03 16:31:14;;;;;;;;;6.75;4.25;;;;;-148.87;21.78;54206.97;5081422;28;45264;-70
2023/07/03 16:33:49;;;;;;;;;3.50;3.50;;;;;-148.87;21.72;54186.94;5080465;28;45501;-69
2023/07/03 16:36:18;;;;;;;;;4.50;3.50;;;;;-148.87;21.90;54285.06;5066229;27;46397;-67
2023/07/03 16:38:53;;;;;;;;;9.00;8.00;;;;;-148.87;22.10;54269.06;5078767;28;45295;-70
2023/07/03 16:41:20;;;;;;;;;8.75;7.50;;;;;-148.87;22.09;54186.94;5076799;28;45309;-68
2023/07/03 16:43:48;;;;;;;;;10.25;8.25;;;;;-148.87;22.24;54176.94;5079876;28;45442;-70
2023/07/03 16:46:18;;;;;;;;;4.75;4.50;;;;;-148.87;22.00;54225.00;5080397;28;45710;-69
2023/07/03 16:48:44;;;;;;;;;6.75;6.75;;;;;-148.87;21.54;54293.09;5064902;28;47177;-68
2023/07/03 16:51:10;;;;;;;;;9.25;8.25;;;;;-148.87;21.13;54335.16;5065315;27;45341;-68
2023/07/03 16:53:39;;;;;;;;;9.00;8.00;;;;;-148.87;20.96;54295.09;5058178;28;45275;-69
2023/07/03 16:56:06;;;;;;;;;8.00;6.00;;;;;-148.87;20.99;54281.06;5057087;28;45508;-69
2023/07/03 16:58:32;;;;;;;;;9.50;9.00;;;;;-148.87;20.82;54301.09;5047955;28;45447;-69
2023/07/03 17:01:18;;;;;;;;;7.50;6.75;;;;;-148.87;20.95;54285.06;5059109;28;45376;-69
2023/07/03 17:03:44;;;;;;;;;6.50;4.75;;;;;-148.87;21.04;54221.00;5059279;28;45295;-73
2023/07/03 17:06:17;;;;;;;;;6.00;4.25;;;;;-148.87;21.04;54299.09;5042260;28;46268;-71
2023/07/03 17:08:43;;;;;;;;;5.50;4.25;;;;;-148.87;21.28;54275.06;5053733;28;45483;-71
2023/07/03 17:11:09;;;;;;;;;7.50;7.25;;;;;-148.87;21.51;54313.13;5040148;28;45225;-72
2023/07/03 17:13:34;;;;;;;;;6.00;5.50;;;;;-148.87;21.25;54265.06;5032621;28;45407;-72
2023/07/03 17:15:59;;;;;;;;;6.00;5.00;;;;;-148.87;21.55;54229.00;5041922;28;46855;-72
2023/07/03 17:18:25;;;;;;;;;4.00;3.00;;;;;-148.87;21.92;54068.81;5069947;28;47270;-72
2023/07/03 17:20:51;;;;;;;;;5.50;4.75;;;;;-148.87;22.35;54022.75;5042051;28;45639;-73
2023/07/03 17:23:16;;;;;;;;;3.25;0.75;;;;;-148.87;22.83;53926.63;5041386;28;45339;-73
2023/07/03 17:25:45;;;;;;;;;5.75;5.50;;;;;-148.87;23.45;53934.63;5058656;28;45277;-73
2023/07/03 17:28:11;;;;;;;;;7.00;7.00;;;;;-148.87;23.70;53886.56;5057931;28;45417;-73
2023/07/03 17:30:39;;;;;;;;;5.25;4.50;;;;;-148.87;23.99;53794.47;5058678;28;45378;-75
2023/07/03 17:33:06;;;;;;;;;5.75;4.75;;;;;-148.87;24.21;53818.50;5041955;28;45317;-74
2023/07/03 17:35:32;;;;;;;;;5.50;5.25;;;;;-148.87;24.37;53804.47;5058754;28;45580;-77
2023/07/03 17:37:58;;;;;;;;;10.25;9.25;;;;;-148.87;24.02;53776.44;5054246;28;45442;-76
2023/07/03 17:40:23;;;;;;;;;6.50;6.00;;;;;-148.87;23.91;53844.53;5059602;28;45579;-70
2023/07/03 17:42:49;;;;;;;;;6.25;6.25;;;;;-148.87;23.76;53908.59;5060083;28;45363;-73
2023/07/03 17:45:14;;;;;;;;;6.00;5.75;;;;;-148.87;23.67;53924.63;5041138;28;46357;-73
2023/07/03 17:47:39;;;;;;;;;6.75;5.50;;;;;-148.87;23.49;53908.59;5040885;28;47346;-79
2023/07/03 17:50:05;;;;;;;;;6.25;5.50;;;;;-148.87;23.28;53928.63;5057411;28;45491;-80
2023/07/03 17:52:31;;;;;;;;;6.00;5.50;;;;;-148.87;23.51;53910.59;5041625;28;45370;-74
2023/07/03 17:54:56;;;;;;;;;3.25;3.00;;;;;-148.87;23.69;53850.53;5057582;28;45501;-74
2023/07/03 17:57:22;;;;;;;;;6.00;4.75;;;;;-148.87;23.62;53866.56;5033625;28;47229;-73
2023/07/03 17:59:47;;;;;;;;;6.50;4.75;;;;;-148.87;23.44;53886.56;5057769;28;46375;-73
2023/07/03 18:02:12;;;;;;;;;6.25;5.00;;;;;-148.87;23.75;53888.59;5072981;28;45295;-71
2023/07/03 18:04:38;;;;;;;;;5.00;4.50;;;;;-148.87;23.60;53950.66;5057628;28;45450;-72
2023/07/03 18:07:05;;;;;;;;;6.50;4.50;;;;;-148.87;23.80;53964.69;5057937;28;45300;-72
2023/07/03 18:09:30;;;;;;;;;6.25;6.25;;;;;-148.87;23.33;53962.66;5058866;28;45403;-73
2023/07/03 18:11:56;;;;;;;;;6.75;6.50;;;;;-148.87;23.65;53974.69;5058914;28;45282;-73
2023/07/03 18:14:22;;;;;;;;;4.00;3.25;;;;;-148.87;23.28;53940.66;5058639;28;45329;-72
2023/07/03 18:16:47;;;;;;;;;10.25;6.75;;;;;-148.87;23.40;53908.59;5059271;28;45423;-73
2023/07/03 18:19:12;;;;;;;;;6.25;5.75;;;;;-148.87;23.54;53904.59;5058154;28;45362;-74
2023/07/03 18:21:38;;;;;;;;;6.25;5.25;;;;;-148.87;23.64;53918.63;5058298;28;45531;-73
2023/07/03 18:24:05;;;;;;;;;5.50;5.25;;;;;-148.87;23.76;53878.56;5043375;28;45931;-74
2023/07/03 18:26:31;;;;;;;;;7.00;5.25;;;;;-148.87;23.85;53838.53;5063900;28;45327;-74
2023/07/03 18:28:56;;;;;;;;;5.00;4.00;;;;;-148.87;23.99;53846.53;5061930;28;45522;-74
2023/07/03 18:31:24;;;;;;;;;8.00;6.75;;;;;-148.87;24.10;53872.56;5059310;28;45401;-74
2023/07/03 18:33:52;;;;;;;;;7.00;6.25;;;;;-148.87;24.27;53876.56;5076113;27;46134;-74
2023/07/03 18:36:17;;;;;;;;;8.25;4.75;;;;;-148.87;24.42;53832.50;5056224;28;46335;-74
2023/07/03 18:38:45;;;;;;;;;5.25;5.00;;;;;-148.87;24.55;53832.50;5058591;28;46424;-74
2023/07/03 18:41:11;;;;;;;;;5.25;5.00;;;;;-148.87;24.69;53748.41;5058263;28;45334;-74
2023/07/03 18:43:36;;;;;;;;;8.00;6.25;;;;;-148.87;24.89;53750.41;5058081;28;46381;-74
2023/07/03 18:46:02;;;;;;;;;4.50;4.50;;;;;-148.87;24.71;53740.41;5065289;28;48243;-74
2023/07/03 18:48:27;;;;;;;;;6.75;6.00;;;;;-148.87;25.15;53708.38;5057408;28;45355;-74
2023/07/03 18:50:53;;;;;;;;;5.25;4.25;;;;;-148.87;25.36;53620.25;5058780;28;45300;-74
2023/07/03 18:53:20;;;;;;;;;4.75;4.75;;;;;-148.87;25.43;53538.16;5056872;28;45305;-74
2023/07/03 18:55:46;;;;;;;;;7.75;6.75;;;;;-148.87;25.85;53504.13;5056276;28;45420;-74
2023/07/03 18:58:12;;;;;;;;;7.75;7.00;;;;;-148.87;26.01;53418.03;5057870;28;45247;-74
2023/07/03 19:00:37;;;;;;;;;9.00;7.00;;;;;-148.87;26.11;53361.97;5058263;28;45276;-73
2023/07/03 19:03:03;;;;;;;;;6.25;6.00;;;;;-148.87;26.18;53323.94;5063908;28;45467;-74
2023/07/03 19:05:28;;;;;;;;;5.00;4.50;;;;;-148.87;26.46;53183.78;5040129;28;47304;-73
2023/07/03 19:07:53;;;;;;;;;4.00;3.75;;;;;-148.87;26.57;53035.66;5056069;28;45430;-73
2023/07/03 19:10:19;;;;;;;;;6.25;6.00;;;;;-148.87;27.00;52795.41;5038379;28;50872;-73
2023/07/03 19:12:45;;;;;;;;;9.00;6.75;;;;;-148.87;27.11;52631.25;5058396;28;45532;-74
2023/07/03 19:15:11;;;;;;;;;6.00;6.00;;;;;-148.87;27.51;52313.00;5057845;28;45425;-73
2023/07/03 19:17:36;;;;;;;;;6.00;6.00;;;;;-148.87;27.75;51990.75;5032373;28;45361;-73
2023/07/03 19:20:01;;;;;;;;;6.75;6.00;;;;;-148.87;27.74;51762.59;5058865;28;45383;-73
2023/07/03 19:22:27;;;;;;;;;7.00;6.00;;;;;-148.87;28.10;51352.34;5057293;28;45605;-73
2023/07/03 19:24:55;;;;;;;;;3.25;2.25;;;;;-148.87;28.12;51164.22;5057046;28;45310;-73
2023/07/03 19:27:21;;;;;;;;;7.75;5.75;;;;;-148.87;28.39;50924.09;5056814;28;45539;-75
2023/07/03 19:29:46;;;;;;;;;9.00;6.75;;;;;-148.87;28.45;50910.09;5057859;28;45387;-74
2023/07/03 19:32:12;;;;;;;;;6.75;6.00;;;;;-148.87;28.85;50193.84;5056602;28;45636;-75
2023/07/03 19:34:39;;;;;;;;;6.00;5.00;;;;;-148.87;28.90;49823.75;5043945;28;47880;-74
2023/07/03 19:37:05;;;;;;;;;7.25;6.25;;;;;-148.87;29.10;49493.72;5061712;28;45311;-77
2023/07/03 19:39:31;;;;;;;;;6.75;6.25;;;;;-148.87;29.15;48971.69;5061250;28;45403;-77
2023/07/03 19:41:56;;;;;;;;;6.00;4.00;;;;;-148.87;29.29;48599.72;5061158;28;45331;-76
2023/07/03 19:44:21;;;;;;;;;5.75;5.00;;;;;-148.87;29.77;48161.81;5058552;28;46644;-71
2023/07/03 19:46:47;;;;;;;;;1.25;1.25;;;;;-148.87;29.83;47771.91;5060042;28;45321;-80
2023/07/03 19:49:12;;;;;;;;;7.25;6.25;;;;;-148.87;30.06;47404.06;5039424;28;45767;-76
2023/07/03 19:51:38;;;;;;;;;6.75;5.25;;;;;-148.87;30.16;46864.34;5054133;28;53834;-77
2023/07/03 19:54:05;;;;;;;;;7.00;6.00;;;;;-148.87;30.18;46732.41;5058971;28;47393;-75
2023/07/03 19:56:32;;;;;;;;;8.25;6.00;;;;;-148.87;30.34;46286.69;5060340;28;45329;-77
2023/07/03 19:58:57;;;;;;;;;6.50;4.75;;;;;-148.87;30.57;45968.94;5059563;28;45549;-71
2023/07/03 20:01:23;;;;;;;;;6.00;5.75;;;;;-148.87;30.44;45421.41;5059079;28;45414;-71
2023/07/03 20:03:48;;;;;;;;;4.75;4.50;;;;;-148.87;30.52;45197.63;5041627;28;47434;-74
2023/07/03 20:06:17;;;;;;;;;6.00;5.25;;;;;-148.87;30.86;44688.16;5060474;28;45355;-73
2023/07/03 20:08:44;;;;;;;;;8.00;5.00;;;;;-148.87;30.77;44460.44;5058101;28;45394;-72
2023/07/03 20:11:11;;;;;;;;;9.00;6.50;;;;;-148.87;31.01;44068.91;5059166;28;45771;-72
2023/07/03 20:13:38;;;;;;;;;19.00;16.00;;;;;-148.87;31.31;43571.59;5053597;28;46240;-69
2023/07/03 20:16:03;;;;;;;;;10.00;8.00;;;;;-148.87;31.17;43765.31;5039923;28;45716;-69
2023/07/03 20:18:29;;;;;;;;;7.75;6.00;;;;;-148.87;31.27;43347.91;5059118;28;45379;-68
2023/07/03 20:20:54;;;;;;;;;5.75;5.25;;;;;-148.87;31.14;43260.03;5057250;28;45522;-68
2023/07/03 20:23:20;;;;;;;;;5.50;5.00;;;;;-148.87;31.69;42772.78;5060373;28;45355;-69
2023/07/03 20:25:56;;;;;;;;;7.50;5.25;;;;;-148.87;31.54;43000.44;5054631;28;45869;-69
2023/07/03 20:28:23;;;;;;;;;5.25;5.25;;;;;-148.87;31.75;42595.06;5031323;28;45675;-69
2023/07/03 20:30:49;;;;;;;;;7.00;6.50;;;;;-148.87;31.90;42461.31;5054972;28;45725;-68
2023/07/03 20:33:15;;;;;;;;;7.00;6.00;;;;;-148.87;31.84;42469.28;5056497;28;46448;-68
2023/07/03 20:35:40;;;;;;;;;5.00;5.00;;;;;-148.87;32.11;42381.44;5050990;28;46880;-68
2023/07/03 20:38:05;;;;;;;;;6.00;5.75;;;;;-148.87;32.15;42403.41;5036965;28;46661;-68
2023/07/03 20:40:31;;;;;;;;;5.00;4.75;;;;;-148.87;32.13;42339.50;5050450;28;46244;-68
2023/07/03 20:42:58;;;;;;;;;6.50;6.00;;;;;-148.87;32.26;42281.59;5054417;28;45603;-68
2023/07/03 20:45:25;;;;;;;;;8.50;4.50;;;;;-148.87;32.35;42339.50;5052360;28;45809;-68
2023/07/03 20:47:51;;;;;;;;;5.75;5.00;;;;;-148.87;32.70;42419.38;5038137;28;45447;-69
2023/07/03 20:50:16;;;;;;;;;6.75;5.50;;;;;-148.87;32.60;42465.28;5064271;28;55388;-68
2023/07/03 20:52:42;;;;;;;;;4.25;4.25;;;;;-148.87;32.72;42547.16;5057014;28;46404;-69
2023/07/03 20:55:35;;;;;;;;;5.00;4.00;;;;;-148.87;32.91;42690.91;5058720;28;45518;-68
2023/07/03 20:58:00;;;;;;;;;4.75;4.75;;;;;-148.87;32.89;42734.84;5065715;28;45611;-68
2023/07/03 21:00:25;;;;;;;;;4.25;4.25;;;;;-148.87;33.25;42920.56;5058222;28;45267;-67
2023/07/03 21:02:51;;;;;;;;;7.00;3.25;;;;;-148.87;33.43;43226.09;5046170;28;53506;-67
2023/07/03 21:05:17;;;;;;;;;4.75;4.25;;;;;-148.87;33.35;43341.91;5041895;28;45450;-68
2023/07/03 21:07:42;;;;;;;;;5.25;3.75;;;;;-148.87;33.25;43547.63;5066612;28;45391;-68
2023/07/03 21:10:08;;;;;;;;;5.00;5.00;;;;;-148.87;33.39;43467.72;5058772;28;45396;-67
2023/07/03 21:12:34;;;;;;;;;5.00;4.00;;;;;-148.87;33.50;43673.44;5060440;28;46320;-68
2023/07/03 21:14:59;;;;;;;;;3.25;2.00;;;;;-148.87;33.80;44070.91;5044550;28;45463;-67
2023/07/03 21:17:25;;;;;;;;;5.00;4.75;;;;;-148.87;33.69;43933.09;5034593;28;48763;-69
2023/07/03 21:19:51;;;;;;;;;4.25;4.25;;;;;-148.87;33.82;44290.63;5059563;28;45500;-68
2023/07/03 21:22:16;;;;;;;;;4.00;3.00;;;;;-148.87;34.08;44356.56;5056909;28;46431;-69
2023/07/03 21:24:42;;;;;;;;;4.50;4.25;;;;;-148.87;33.95;44300.63;5058957;28;45306;-69
2023/07/03 21:27:07;;;;;;;;;3.00;3.00;;;;;-148.87;33.87;44356.56;5058656;28;45823;-69
2023/07/03 21:29:33;;;;;;;;;5.75;4.00;;;;;-148.87;34.08;44552.31;5040907;28;45816;-69
2023/07/03 21:31:58;;;;;;;;;3.50;3.50;;;;;-148.87;34.24;44897.94;5045130;28;47328;-69
2023/07/03 21:34:23;;;;;;;;;4.50;3.00;;;;;-148.87;34.32;44999.84;5044183;28;45410;-69
2023/07/03 21:36:49;;;;;;;;;5.00;4.00;;;;;-148.87;34.16;45129.69;5042270;28;45451;-69
2023/07/03 21:39:14;;;;;;;;;5.00;4.75;;;;;-148.87;34.36;45201.63;5039922;28;46533;-69
2023/07/03 21:41:41;;;;;;;;;6.00;5.25;;;;;-148.87;34.52;45287.53;5041805;28;48064;-69
2023/07/03 21:44:12;;;;;;;;;6.00;4.75;;;;;-148.87;34.69;45745.13;5055896;28;45350;-69
2023/07/03 21:46:38;;;;;;;;;4.00;3.25;;;;;-148.87;34.54;45713.16;5060197;28;45256;-69
2023/07/03 21:49:03;;;;;;;;;2.50;2.00;;;;;-148.87;34.67;45942.97;5057621;28;45577;-69
2023/07/03 21:51:29;;;;;;;;;3.50;3.50;;;;;-148.87;34.82;46012.91;5059214;28;56491;-69
2023/07/03 21:53:56;;;;;;;;;7.00;4.50;;;;;-148.87;34.79;45942.97;5040426;28;45677;-69
2023/07/03 21:56:24;;;;;;;;;6.50;4.75;;;;;-148.87;34.94;46060.88;5067021;28;45497;-69
2023/07/03 21:58:51;;;;;;;;;6.00;4.50;;;;;-148.87;34.94;46222.75;5057225;28;45190;-69
2023/07/03 22:01:24;;;;;;;;;4.00;3.50;;;;;-148.87;34.97;46302.69;5059846;28;45486;-69
2023/07/03 22:03:49;;;;;;;;;6.50;5.75;;;;;-148.87;35.22;46418.63;5059001;28;45288;-69
2023/07/03 22:06:15;;;;;;;;;6.75;5.25;;;;;-148.87;35.22;46498.56;5041002;28;45271;-69
2023/07/03 22:08:40;;;;;;;;;5.75;4.50;;;;;-148.87;35.12;46660.47;5059119;28;45485;-69
2023/07/03 22:11:07;;;;;;;;;6.00;5.25;;;;;-148.87;35.42;46920.31;5049351;28;46978;-69
2023/07/03 22:13:33;;;;;;;;;4.75;4.50;;;;;-148.87;35.22;46706.44;5059571;28;45193;-69
2023/07/03 22:15:58;;;;;;;;;6.50;5.00;;;;;-148.87;35.44;47068.22;5038529;28;45393;-69
2023/07/03 22:18:24;;;;;;;;;5.00;4.00;;;;;-148.87;35.55;46972.28;5057146;28;45329;-69
2023/07/03 22:20:51;;;;;;;;;3.75;3.00;;;;;-148.87;35.39;46914.31;5059196;28;45307;-69
2023/07/03 22:23:18;;;;;;;;;5.25;4.25;;;;;-148.87;35.36;46850.34;5058922;28;45416;-68
2023/07/03 22:25:43;;;;;;;;;4.25;4.00;;;;;-148.87;35.61;47166.19;5059497;28;45327;-70
2023/07/03 22:28:08;;;;;;;;;6.75;6.50;;;;;-148.87;35.54;47038.25;5055910;28;49680;-71
2023/07/03 22:30:34;;;;;;;;;8.75;7.50;;;;;-148.87;35.59;47082.22;5057490;28;50690;-69
2023/07/03 22:32:59;;;;;;;;;4.75;4.25;;;;;-148.87;35.54;47132.19;5059336;28;46441;-71
2023/07/03 22:35:25;;;;;;;;;5.50;5.00;;;;;-148.87;35.47;47134.19;5058621;28;45335;-69
2023/07/03 22:37:50;;;;;;;;;5.25;3.75;;;;;-148.87;35.72;47244.13;5039763;28;46170;-70
2023/07/03 22:40:15;;;;;;;;;4.50;4.00;;;;;-148.87;35.76;47414.06;5040815;28;54457;-69
2023/07/03 22:42:41;;;;;;;;;5.75;3.50;;;;;-148.87;36.01;47374.06;5041077;28;45363;-68
2023/07/03 22:45:09;;;;;;;;;6.25;5.50;;;;;-148.87;36.05;47522.00;5063734;27;45481;-69
2023/07/03 22:47:34;;;;;;;;;3.75;3.75;;;;;-148.87;36.09;47582.00;5058169;28;45590;-69
2023/07/03 22:50:01;;;;;;;;;4.50;3.50;;;;;-148.87;35.98;47627.97;5059109;28;45406;-69
2023/07/03 22:52:28;;;;;;;;;2.75;2.75;;;;;-148.87;35.94;47673.97;5058351;28;45403;-69
2023/07/03 22:54:53;;;;;;;;;7.00;5.25;;;;;-148.87;36.36;47735.94;5043157;28;45372;-69
2023/07/03 22:57:18;;;;;;;;;5.75;5.25;;;;;-148.87;36.14;47679.97;5057928;28;45303;-68
2023/07/03 22:59:44;;;;;;;;;5.25;5.25;;;;;-148.87;36.26;47755.94;5039224;28;46992;-70
2023/07/03 23:02:09;;;;;;;;;4.25;3.50;;;;;-148.87;36.41;47821.91;5059060;28;45216;-69
2023/07/03 23:04:35;;;;;;;;;7.25;5.50;;;;;-148.87;36.35;47903.88;5040652;28;45260;-68
2023/07/03 23:07:01;;;;;;;;;5.00;5.00;;;;;-148.87;36.37;48023.84;5057482;28;45236;-69
2023/07/03 23:09:27;;;;;;;;;6.75;6.00;;;;;-148.87;36.50;47993.84;5058996;28;45355;-71
2023/07/03 23:11:53;;;;;;;;;7.00;4.75;;;;;-148.87;36.51;48129.81;5060910;28;45471;-69
2023/07/03 23:14:19;;;;;;;;;5.00;4.00;;;;;-148.87;36.59;48105.81;5062768;28;45455;-69
2023/07/03 23:16:47;;;;;;;;;4.00;4.00;;;;;-148.87;36.49;48095.81;5061866;28;45406;-71
2023/07/03 23:19:13;;;;;;;;;4.25;3.25;;;;;-148.87;36.37;47973.84;5061413;28;46419;-69
2023/07/03 23:21:39;;;;;;;;;4.00;4.00;;;;;-148.87;36.44;47941.88;5061506;28;45639;-69
2023/07/03 23:24:06;;;;;;;;;5.00;4.00;;;;;-148.87;36.29;47895.88;5062616;28;45360;-71
2023/07/03 23:26:31;;;;;;;;;4.00;2.75;;;;;-148.87;36.55;47941.88;5066447;27;47296;-71
2023/07/03 23:29:00;;;;;;;;;3.25;3.25;;;;;-148.87;36.24;47863.88;5061953;28;46273;-69
2023/07/03 23:31:28;;;;;;;;;4.00;4.00;;;;;-148.87;36.48;47893.88;5044467;28;45254;-69
2023/07/03 23:33:54;;;;;;;;;6.25;6.00;;;;;-148.87;36.34;47877.88;5062367;28;45438;-71
2023/07/03 23:36:22;;;;;;;;;4.50;3.75;;;;;-148.87;36.68;47961.88;5062274;28;45462;-69
2023/07/03 23:38:48;;;;;;;;;4.00;3.25;;;;;-148.87;36.60;47855.91;5042508;28;46255;-68
2023/07/03 23:41:15;;;;;;;;;5.00;3.00;;;;;-148.87;36.17;47951.88;5061878;28;45408;-69
2023/07/03 23:43:41;;;;;;;;;5.00;4.00;;;;;-148.87;36.61;47933.88;5064548;28;45425;-68
2023/07/03 23:46:08;;;;;;;;;5.00;5.00;;;;;-148.87;36.59;47995.84;5062086;28;45543;-69
2023/07/03 23:48:34;;;;;;;;;4.25;4.25;;;;;-148.87;36.71;48029.84;5061899;28;45532;-69
2023/07/03 23:51:02;;;;;;;;;6.50;5.50;;;;;-148.87;36.56;48107.81;5062106;28;45208;-69
2023/07/03 23:53:32;;;;;;;;;7.50;6.25;;;;;-148.87;36.74;48053.84;5039329;28;45395;-69
2023/07/03 23:56:00;;;;;;;;;8.00;7.50;;;;;-148.87;36.79;48145.81;5042742;28;46956;-68
2023/07/03 23:58:26;;;;;;;;;8.25;7.00;;;;;-148.87;36.66;48231.78;5060529;28;45383;-69
